createdAt,value
2019-01-13T00:00:35.821Z,7.48
2019-01-13T00:01:46.099Z,7.47
2019-01-13T00:02:56.028Z,7.44
2019-01-13T00:04:07.296Z,7.48
2019-01-13T00:05:17.422Z,7.33
2019-01-13T00:06:27.526Z,7.41
2019-01-13T00:07:37.599Z,7.26
2019-01-13T00:08:47.836Z,7.33
2019-01-13T00:09:58.246Z,7.22
2019-01-13T00:11:12.250Z,7.3
2019-01-13T00:12:22.322Z,7.26
2019-01-13T00:13:32.419Z,7.18
2019-01-13T00:14:42.586Z,7.26
2019-01-13T00:15:52.717Z,7.23
2019-01-13T00:17:03.077Z,7.21
2019-01-13T00:18:12.943Z,7.18
2019-01-13T00:19:23.063Z,7.16
2019-01-13T00:20:32.880Z,7.19
2019-01-13T00:21:43.202Z,7.19
2019-01-13T00:22:53.011Z,7.15
2019-01-13T00:24:03.349Z,7.15
2019-01-13T00:25:13.569Z,7.15
2019-01-13T00:26:23.697Z,7.16
2019-01-13T00:27:33.831Z,7.19
2019-01-13T00:28:43.907Z,7.18
2019-01-13T00:29:53.718Z,7.22
2019-01-13T00:31:04.139Z,7.19
2019-01-13T00:32:13.760Z,7.22
2019-01-13T00:33:23.792Z,7.23
2019-01-13T00:34:33.879Z,7.26
2019-01-13T00:35:43.947Z,7.33
2019-01-13T00:36:54.261Z,7.31
2019-01-13T00:38:05.398Z,7.22
2019-01-13T00:39:15.207Z,7.26
2019-01-13T00:40:25.290Z,7.33
2019-01-13T00:41:36.147Z,7.19
2019-01-13T00:42:46.308Z,7.29
2019-01-13T00:43:56.703Z,7.23
2019-01-13T00:45:07.086Z,7.34
2019-01-13T00:46:17.215Z,7.39
2019-01-13T00:47:27.460Z,7.41
2019-01-13T00:48:37.507Z,7.39
2019-01-13T00:49:47.660Z,7.37
2019-01-13T00:50:57.904Z,7.36
2019-01-13T00:52:09.223Z,7.4
2019-01-13T00:53:19.533Z,7.41
2019-01-13T00:54:29.671Z,7.44
2019-01-13T00:55:39.554Z,7.47
2019-01-13T00:56:49.668Z,7.48
2019-01-13T00:57:59.783Z,7.51
2019-01-13T00:59:10.906Z,7.45
2019-01-13T01:00:26.358Z,7.51
2019-01-13T01:01:36.865Z,7.55
2019-01-13T01:02:47.065Z,7.55
2019-01-13T01:03:57.173Z,7.44
2019-01-13T01:05:07.427Z,7.51
2019-01-13T01:06:17.577Z,7.56
2019-01-13T01:07:27.652Z,7.54
2019-01-13T01:08:37.512Z,7.52
2019-01-13T01:09:47.769Z,7.48
2019-01-13T01:10:57.877Z,7.58
2019-01-13T01:12:07.824Z,7.54
2019-01-13T01:13:17.382Z,7.54
2019-01-13T01:14:27.512Z,7.47
2019-01-13T01:15:37.561Z,7.55
2019-01-13T01:16:47.930Z,7.55
2019-01-13T01:17:58.169Z,7.51
2019-01-13T01:19:08.086Z,7.48
2019-01-13T01:20:18.321Z,7.51
2019-01-13T01:21:27.913Z,7.59
2019-01-13T01:22:38.053Z,7.54
2019-01-13T01:23:47.893Z,7.52
2019-01-13T01:24:57.984Z,7.51
2019-01-13T01:26:08.114Z,7.52
2019-01-13T01:27:18.203Z,7.47
2019-01-13T01:28:28.383Z,7.52
2019-01-13T01:29:38.513Z,7.59
2019-01-13T01:30:48.747Z,7.49
2019-01-13T01:31:58.794Z,7.45
2019-01-13T01:33:08.592Z,7.49
2019-01-13T01:34:18.643Z,7.45
2019-01-13T01:35:28.495Z,7.45
2019-01-13T01:36:38.619Z,7.48
2019-01-13T01:37:48.807Z,7.45
2019-01-13T01:38:58.964Z,7.48
2019-01-13T01:40:10.781Z,7.55
2019-01-13T01:41:20.884Z,7.49
2019-01-13T01:42:30.706Z,7.52
2019-01-13T01:43:40.853Z,7.52
2019-01-13T01:44:50.913Z,7.51
2019-01-13T01:46:00.703Z,7.51
2019-01-13T01:47:10.862Z,7.54
2019-01-13T01:48:20.918Z,7.51
2019-01-13T01:49:31.033Z,7.52
2019-01-13T01:50:41.076Z,7.51
2019-01-13T01:51:51.226Z,7.39
2019-01-13T01:53:02.014Z,7.47
2019-01-13T01:54:12.196Z,7.47
2019-01-13T01:55:22.347Z,7.48
2019-01-13T01:56:31.907Z,7.48
2019-01-13T01:57:41.954Z,7.37
2019-01-13T01:58:52.026Z,7.33
2019-01-13T02:00:01.587Z,7.36
2019-01-13T02:01:11.593Z,7.45
2019-01-13T02:02:21.396Z,7.37
2019-01-13T02:03:31.458Z,7.4
2019-01-13T02:04:41.602Z,7.44
2019-01-13T02:05:51.723Z,7.39
2019-01-13T02:07:03.290Z,7.36
2019-01-13T02:08:13.168Z,7.39
2019-01-13T02:09:22.959Z,7.41
2019-01-13T02:10:33.076Z,7.37
2019-01-13T02:11:43.158Z,7.45
2019-01-13T02:12:53.219Z,7.41
2019-01-13T02:14:04.887Z,7.36
2019-01-13T02:15:14.947Z,7.47
2019-01-13T02:16:24.999Z,7.47
2019-01-13T02:17:34.809Z,7.41
2019-01-13T02:18:44.866Z,7.37
2019-01-13T02:19:55.357Z,7.47
2019-01-13T02:21:05.757Z,7.36
2019-01-13T02:22:15.817Z,7.36
2019-01-13T02:23:25.865Z,7.36
2019-01-13T02:24:35.959Z,7.39
2019-01-13T02:25:45.237Z,7.44
2019-01-13T02:26:55.276Z,7.34
2019-01-13T02:28:05.339Z,7.4
2019-01-13T02:29:15.420Z,7.44
2019-01-13T02:30:25.475Z,7.36
2019-01-13T02:31:35.937Z,7.37
2019-01-13T02:32:46.003Z,7.34
2019-01-13T02:33:56.116Z,7.34
2019-01-13T02:35:05.927Z,7.39
2019-01-13T02:36:15.717Z,7.37
2019-01-13T02:37:25.541Z,7.47
2019-01-13T02:38:35.601Z,7.37
2019-01-13T02:39:45.853Z,7.39
2019-01-13T02:40:55.640Z,7.44
2019-01-13T02:42:05.733Z,7.39
2019-01-13T02:43:15.283Z,7.34
2019-01-13T02:44:25.081Z,7.41
2019-01-13T02:45:35.377Z,7.33
2019-01-13T02:46:45.419Z,7.22
2019-01-13T02:47:55.540Z,7.23
2019-01-13T02:49:09.091Z,7.22
2019-01-13T02:50:19.140Z,7.29
2019-01-13T02:51:30.798Z,7.21
2019-01-13T02:52:40.638Z,7.23
2019-01-13T02:53:50.714Z,7.26
2019-01-13T02:55:00.784Z,7.27
2019-01-13T02:56:10.908Z,7.23
2019-01-13T02:57:21.199Z,7.15
2019-01-13T02:58:31.075Z,7.15
2019-01-13T02:59:41.121Z,7.18
2019-01-13T03:00:56.965Z,7.16
2019-01-13T03:02:20.174Z,7.11
2019-01-13T03:03:33.683Z,7.13
2019-01-13T03:35:23.684Z,5.31
2019-01-13T03:36:33.562Z,5.34
2019-01-13T03:37:43.381Z,5.34
2019-01-13T03:38:53.470Z,5.34
2019-01-13T03:40:03.517Z,5.36
2019-01-13T03:41:13.565Z,5.39
2019-01-13T03:42:23.629Z,5.46
2019-01-13T03:43:33.422Z,5.55
2019-01-13T03:44:43.485Z,5.62
2019-01-13T03:45:53.537Z,5.85
2019-01-13T03:47:03.713Z,5.81
2019-01-13T03:48:13.795Z,5.98
2019-01-13T03:49:23.858Z,6.17
2019-01-13T03:50:33.934Z,6.15
2019-01-13T03:51:43.488Z,6.25
2019-01-13T03:52:58.146Z,6.44
2019-01-13T03:54:08.234Z,6.42
2019-01-13T03:55:18.290Z,6.42
2019-01-13T03:56:28.126Z,6.51
2019-01-13T03:57:38.239Z,6.58
2019-01-13T03:58:48.417Z,6.65
2019-01-13T03:59:58.219Z,6.7
2019-01-13T04:01:08.498Z,6.73
2019-01-13T04:02:25.925Z,6.67
2019-01-13T04:03:35.715Z,6.72
2019-01-13T04:04:45.808Z,6.86
2019-01-13T04:05:55.916Z,6.82
2019-01-13T04:07:08.539Z,6.9
2019-01-13T04:08:18.448Z,6.91
2019-01-13T04:09:28.495Z,6.98
2019-01-13T04:10:38.614Z,7
2019-01-13T04:11:48.437Z,6.98
2019-01-13T04:12:58.227Z,6.97
2019-01-13T04:14:09.622Z,6.94
2019-01-13T04:15:19.435Z,6.94
2019-01-13T04:16:29.247Z,7.04
2019-01-13T04:17:39.034Z,7.16
2019-01-13T04:18:49.055Z,7.04
2019-01-13T04:19:59.118Z,7
2019-01-13T04:21:08.683Z,7.01
2019-01-13T04:22:18.748Z,7.01
2019-01-13T04:23:28.586Z,7.11
2019-01-13T04:24:38.658Z,7.16
2019-01-13T04:25:48.744Z,7.03
2019-01-13T04:26:58.833Z,7.04
2019-01-13T04:28:09.519Z,7
2019-01-13T04:29:19.568Z,7.09
2019-01-13T04:30:29.521Z,7.11
2019-01-13T04:31:39.591Z,6.98
2019-01-13T04:32:49.654Z,7.01
2019-01-13T04:33:59.722Z,7.09
2019-01-13T04:35:09.782Z,7.16
2019-01-13T04:36:19.857Z,7.11
2019-01-13T04:37:30.011Z,7.11
2019-01-13T04:38:39.815Z,7.12
2019-01-13T04:39:49.626Z,7.16
2019-01-13T04:40:59.437Z,7.12
2019-01-13T04:42:09.504Z,7.12
2019-01-13T04:43:19.614Z,7.18
2019-01-13T04:44:29.678Z,7.15
2019-01-13T04:45:39.738Z,7.18
2019-01-13T04:46:49.526Z,7.13
2019-01-13T04:47:59.589Z,7.13
2019-01-13T04:49:09.528Z,7.13
2019-01-13T04:50:19.590Z,7.19
2019-01-13T04:51:29.394Z,7.16
2019-01-13T04:52:39.453Z,7.12
2019-01-13T04:53:49.252Z,7.12
2019-01-13T04:54:59.297Z,7.08
2019-01-13T04:56:09.090Z,7.11
2019-01-13T04:57:19.146Z,7.13
2019-01-13T04:58:28.970Z,7.11
2019-01-13T04:59:38.845Z,7.08
2019-01-13T05:00:48.647Z,7.16
2019-01-13T05:01:58.459Z,7.05
2019-01-13T05:03:08.516Z,7.11
2019-01-13T05:04:18.580Z,7.04
2019-01-13T05:05:28.373Z,7.13
2019-01-13T05:06:38.019Z,7.18
2019-01-13T05:07:48.481Z,7.16
2019-01-13T05:08:58.324Z,7.19
2019-01-13T05:10:10.906Z,7.18
2019-01-13T05:11:20.953Z,7.05
2019-01-13T05:12:32.732Z,7.04
2019-01-13T05:13:42.521Z,7.11
2019-01-13T05:14:52.623Z,7.21
2019-01-13T05:16:03.782Z,7.11
2019-01-13T05:17:13.644Z,7.13
2019-01-13T05:18:23.703Z,7.15
2019-01-13T05:19:33.879Z,7.08
2019-01-13T05:20:45.246Z,7.08
2019-01-13T05:21:55.314Z,7.05
2019-01-13T05:23:05.635Z,7.11
2019-01-13T05:24:15.695Z,7.12
2019-01-13T05:25:25.472Z,7.05
2019-01-13T05:26:35.012Z,7.21
2019-01-13T05:27:45.086Z,7.11
2019-01-13T05:28:55.154Z,7.15
2019-01-13T05:30:05.044Z,7.09
2019-01-13T05:31:15.168Z,7.04
2019-01-13T05:32:25.343Z,7.16
2019-01-13T05:33:35.391Z,7.09
2019-01-13T05:34:45.438Z,7.05
2019-01-13T05:35:55.537Z,7.09
2019-01-13T05:37:05.599Z,7.05
2019-01-13T05:38:15.457Z,7.05
2019-01-13T05:39:25.303Z,7.18
2019-01-13T05:40:35.483Z,7.12
2019-01-13T05:41:45.541Z,7.04
2019-01-13T05:42:55.644Z,7.11
2019-01-13T05:44:06.235Z,7.15
2019-01-13T05:45:16.309Z,7.08
2019-01-13T05:46:26.125Z,7.11
2019-01-13T05:47:36.191Z,7.09
2019-01-13T05:48:46.242Z,7.11
2019-01-13T05:49:56.284Z,7.09
2019-01-13T05:51:06.484Z,7.08
2019-01-13T05:52:16.278Z,7.11
2019-01-13T05:53:26.324Z,7.12
2019-01-13T05:54:36.615Z,7.01
2019-01-13T05:55:46.777Z,7.08
2019-01-13T05:56:56.614Z,7.05
2019-01-13T05:58:06.945Z,7.03
2019-01-13T05:59:16.947Z,7.01
2019-01-13T06:00:27.142Z,7.19
2019-01-13T06:01:38.846Z,7.08
2019-01-13T06:02:54.618Z,7.09
2019-01-13T06:04:04.664Z,7.04
2019-01-13T06:05:14.690Z,7
2019-01-13T06:06:24.523Z,7.01
2019-01-13T06:07:34.328Z,7.04
2019-01-13T06:08:44.394Z,7.05
2019-01-13T06:09:54.452Z,7.03
2019-01-13T06:11:04.846Z,7.01
2019-01-13T06:12:14.405Z,7.05
2019-01-13T06:13:23.999Z,7.01
2019-01-13T06:14:33.800Z,7.09
2019-01-13T06:15:43.836Z,7.05
2019-01-13T06:16:53.643Z,7
2019-01-13T06:18:03.994Z,7.03
2019-01-13T06:19:13.792Z,7.01
2019-01-13T06:20:23.607Z,7
2019-01-13T06:21:33.660Z,7
2019-01-13T06:22:43.198Z,7.03
2019-01-13T06:23:53.260Z,7
2019-01-13T06:25:03.314Z,7.01
2019-01-13T06:26:13.405Z,6.98
2019-01-13T06:27:23.190Z,7.05
2019-01-13T06:28:33.274Z,7.04
2019-01-13T06:29:43.061Z,7.01
2019-01-13T06:30:53.023Z,7.04
2019-01-13T06:32:02.824Z,6.98
2019-01-13T06:33:12.873Z,7.05
2019-01-13T06:34:23.120Z,7.04
2019-01-13T06:35:33.419Z,6.94
2019-01-13T06:36:43.461Z,6.97
2019-01-13T06:37:53.495Z,6.95
2019-01-13T06:39:05.856Z,6.91
2019-01-13T06:40:15.684Z,6.86
2019-01-13T06:41:25.740Z,6.85
2019-01-13T06:42:35.590Z,6.82
2019-01-13T06:43:45.642Z,6.78
2019-01-13T06:44:54.664Z,6.79
2019-01-13T06:46:04.473Z,6.7
2019-01-13T06:47:14.528Z,6.82
2019-01-13T06:48:24.365Z,6.73
2019-01-13T06:49:34.416Z,6.73
2019-01-13T06:50:44.205Z,6.75
2019-01-13T06:51:54.498Z,6.73
2019-01-13T06:53:04.003Z,6.72
2019-01-13T06:54:13.810Z,6.72
2019-01-13T06:55:23.890Z,6.62
2019-01-13T06:56:33.704Z,6.67
2019-01-13T06:57:43.488Z,6.7
2019-01-13T06:58:53.779Z,6.67
2019-01-13T07:00:05.772Z,6.67
2019-01-13T07:01:15.715Z,6.67
2019-01-13T07:02:25.505Z,6.7
2019-01-13T07:03:35.326Z,6.79
2019-01-13T07:04:45.123Z,6.72
2019-01-13T07:05:55.195Z,6.76
2019-01-13T07:07:07.456Z,6.76
2019-01-13T07:08:17.513Z,6.82
2019-01-13T07:09:27.572Z,6.8
2019-01-13T07:10:37.631Z,6.79
2019-01-13T07:11:47.794Z,6.78
2019-01-13T07:12:57.592Z,6.93
2019-01-13T07:14:07.387Z,6.98
2019-01-13T07:15:17.511Z,7.04
2019-01-13T07:16:27.321Z,6.95
2019-01-13T07:17:38.590Z,7.09
2019-01-13T07:18:48.712Z,7.16
2019-01-13T07:19:58.744Z,7.23
2019-01-13T07:21:08.805Z,7.22
2019-01-13T07:22:18.872Z,7.29
2019-01-13T07:23:28.687Z,7.36
2019-01-13T07:24:38.488Z,7.36
2019-01-13T07:25:48.086Z,7.56
2019-01-13T07:26:57.872Z,7.51
2019-01-13T07:28:10.482Z,7.61
2019-01-13T07:29:20.280Z,7.61
2019-01-13T07:30:30.356Z,7.7
2019-01-13T07:31:40.428Z,7.68
2019-01-13T07:32:50.501Z,7.8
2019-01-13T07:34:00.569Z,7.78
2019-01-13T07:35:10.633Z,7.78
2019-01-13T07:36:20.430Z,7.78
2019-01-13T07:37:30.293Z,7.74
2019-01-13T07:38:40.368Z,7.68
2019-01-13T07:39:50.427Z,7.61
2019-01-13T07:41:00.501Z,7.7
2019-01-13T07:42:10.793Z,7.75
2019-01-13T07:43:20.835Z,7.75
2019-01-13T07:44:30.883Z,7.86
2019-01-13T07:45:40.693Z,7.82
2019-01-13T07:46:50.747Z,7.86
2019-01-13T07:48:00.802Z,7.86
2019-01-13T07:49:10.759Z,7.92
2019-01-13T07:50:20.572Z,8.03
2019-01-13T07:51:30.369Z,8.22
2019-01-13T07:52:40.178Z,8.25
2019-01-13T07:53:50.252Z,8.34
2019-01-13T07:55:01.276Z,8.52
2019-01-13T07:56:11.639Z,8.36
2019-01-13T07:57:22.807Z,8.34
2019-01-13T07:58:32.613Z,8.34
2019-01-13T07:59:42.501Z,8.24
2019-01-13T08:00:52.765Z,8.47
2019-01-13T08:02:03.609Z,8.5
2019-01-13T08:03:17.439Z,8.46
2019-01-13T08:14:25.177Z,8.24
2019-01-13T08:15:35.293Z,8.31
2019-01-13T08:16:45.334Z,8.42
2019-01-13T08:17:55.380Z,8.34
2019-01-13T08:19:05.449Z,8.26
2019-01-13T08:20:15.575Z,8.21
2019-01-13T08:21:25.665Z,8.14
2019-01-13T08:22:35.869Z,8.06
2019-01-13T08:23:45.924Z,8.13
2019-01-13T08:24:56.041Z,8.13
2019-01-13T08:26:06.404Z,8.11
2019-01-13T08:27:16.448Z,8.19
2019-01-13T08:28:26.505Z,8.25
2019-01-13T08:29:37.632Z,8.14
2019-01-13T08:30:47.436Z,8.09
2019-01-13T08:31:57.482Z,8.01
2019-01-13T08:33:07.561Z,8.1
2019-01-13T08:34:17.375Z,8.06
2019-01-13T08:35:26.924Z,8.04
2019-01-13T08:36:36.724Z,7.98
2019-01-13T08:37:46.550Z,8.14
2019-01-13T08:38:56.150Z,8.39
2019-01-13T08:40:08.262Z,8.61
2019-01-13T08:41:18.326Z,8.58
2019-01-13T08:42:28.125Z,8.47
2019-01-13T08:43:37.920Z,8.44
2019-01-13T08:44:48.012Z,8.62
2019-01-13T08:45:58.485Z,8.72
2019-01-13T08:47:09.416Z,8.71
2019-01-13T08:48:19.216Z,8.71
2019-01-13T08:49:29.321Z,8.6
2019-01-13T08:50:39.476Z,8.6
2019-01-13T08:51:49.532Z,8.65
2019-01-13T08:52:59.099Z,8.6
2019-01-13T08:54:09.153Z,8.67
2019-01-13T08:55:19.229Z,9.09
2019-01-13T08:56:29.307Z,9.14
2019-01-13T08:57:39.146Z,9.23
2019-01-13T08:58:49.448Z,9.44
2019-01-13T08:59:59.534Z,9.53
2019-01-13T09:01:09.738Z,9.64
2019-01-13T09:02:19.800Z,9.71
2019-01-13T09:03:29.859Z,9.85
2019-01-13T09:04:39.932Z,9.8
2019-01-13T09:05:49.762Z,9.62
2019-01-13T09:06:59.877Z,9.6
2019-01-13T09:08:09.748Z,9.52
2019-01-13T09:09:18.785Z,9.45
2019-01-13T09:10:28.870Z,9.41
2019-01-13T09:11:38.926Z,9.5
2019-01-13T09:12:56.348Z,9.39
2019-01-13T09:14:06.704Z,9.42
2019-01-13T09:15:16.788Z,9.41
2019-01-13T09:16:27.159Z,9.63
2019-01-13T09:17:37.233Z,9.75
2019-01-13T09:18:47.322Z,9.72
2019-01-13T09:19:57.438Z,9.66
2019-01-13T09:21:07.506Z,9.67
2019-01-13T09:22:17.633Z,9.63
2019-01-13T09:23:27.997Z,9.63
2019-01-13T09:24:38.147Z,9.64
2019-01-13T09:25:47.965Z,9.57
2019-01-13T09:26:58.019Z,9.56
2019-01-13T09:28:08.643Z,9.53
2019-01-13T09:29:18.693Z,9.7
2019-01-13T09:30:28.807Z,9.81
2019-01-13T09:31:39.156Z,9.92
2019-01-13T09:32:49.224Z,9.98
2019-01-13T09:33:59.417Z,9.9
2019-01-13T09:35:09.475Z,9.9
2019-01-13T09:36:19.540Z,9.89
2019-01-13T09:37:29.673Z,9.72
2019-01-13T09:38:39.509Z,9.74
2019-01-13T09:39:49.592Z,9.84
2019-01-13T09:40:59.411Z,9.82
2019-01-13T09:42:09.313Z,9.8
2019-01-13T09:43:19.373Z,10.08
2019-01-13T09:44:29.473Z,10.31
2019-01-13T09:45:39.025Z,10.51
2019-01-13T09:46:49.073Z,10.75
2019-01-13T09:47:58.770Z,11.03
2019-01-13T09:49:09.169Z,11.21
2019-01-13T09:50:19.229Z,11.23
2019-01-13T09:51:29.312Z,11.3
2019-01-13T09:52:39.436Z,11.2
2019-01-13T09:53:49.484Z,11.23
2019-01-13T09:54:59.658Z,11.18
2019-01-13T09:56:09.905Z,11.13
2019-01-13T09:57:20.366Z,11.02
2019-01-13T09:58:30.450Z,11.05
2019-01-13T09:59:40.529Z,11.08
2019-01-13T10:00:50.374Z,11.08
2019-01-13T10:02:02.242Z,11.06
2019-01-13T10:03:13.207Z,11.06
2019-01-13T10:04:23.345Z,11.12
2019-01-13T10:05:33.294Z,11.12
2019-01-13T10:06:43.566Z,11.28
2019-01-13T10:07:53.811Z,11.23
2019-01-13T10:09:05.922Z,11.18
2019-01-13T10:10:16.387Z,11.38
2019-01-13T10:11:26.315Z,11.38
2019-01-13T10:12:36.465Z,11.46
2019-01-13T10:13:46.536Z,11.53
2019-01-13T10:14:56.783Z,11.6
2019-01-13T10:16:06.854Z,11.68
2019-01-13T10:17:17.069Z,11.68
2019-01-13T10:18:27.140Z,11.76
2019-01-13T10:19:37.593Z,11.63
2019-01-13T10:20:47.509Z,11.64
2019-01-13T10:21:57.528Z,11.63
2019-01-13T10:23:08.600Z,11.68
2019-01-13T10:24:18.862Z,11.71
2019-01-13T10:25:28.731Z,11.75
2019-01-13T10:26:38.975Z,11.68
2019-01-13T10:27:48.863Z,11.68
2019-01-13T10:28:59.322Z,11.81
2019-01-13T10:30:09.673Z,11.95
2019-01-13T10:31:20.005Z,11.95
2019-01-13T10:32:30.469Z,12.04
2019-01-13T10:33:40.816Z,12.13
2019-01-13T10:34:51.013Z,12
2019-01-13T10:36:02.209Z,11.95
2019-01-13T10:37:12.278Z,12.19
2019-01-13T10:38:22.395Z,12.04
2019-01-13T10:39:31.970Z,12.04
2019-01-13T10:40:42.113Z,12.07
2019-01-13T10:41:52.248Z,12.22
2019-01-13T10:43:02.410Z,12.34
2019-01-13T10:44:12.581Z,12.55
2019-01-13T10:45:22.662Z,12.48
2019-01-13T10:46:32.869Z,12.36
2019-01-13T10:47:42.773Z,12.34
2019-01-13T10:48:52.591Z,12.48
2019-01-13T10:50:02.711Z,12.53
2019-01-13T10:51:12.676Z,12.43
2019-01-13T10:52:22.952Z,12.41
2019-01-13T10:53:33.032Z,12.48
2019-01-13T10:54:43.130Z,12.58
2019-01-13T10:55:53.239Z,12.53
2019-01-13T10:57:04.298Z,12.43
2019-01-13T10:58:14.612Z,12.51
2019-01-13T10:59:24.622Z,12.73
2019-01-13T11:00:35.114Z,12.86
2019-01-13T11:01:45.221Z,12.89
2019-01-13T11:03:01.949Z,12.91
2019-01-13T11:04:13.022Z,12.89
2019-01-13T11:05:22.971Z,12.77
2019-01-13T11:06:33.464Z,12.77
2019-01-13T11:07:43.698Z,12.88
2019-01-13T11:08:54.333Z,12.81
2019-01-13T11:10:06.336Z,12.78
2019-01-13T11:11:16.417Z,12.8
2019-01-13T11:12:27.037Z,12.78
2019-01-13T11:13:37.082Z,12.8
2019-01-13T11:14:47.047Z,12.74
2019-01-13T11:15:56.985Z,12.81
2019-01-13T11:17:07.021Z,13.03
2019-01-13T11:18:16.970Z,13.13
2019-01-13T11:19:27.398Z,13.17
2019-01-13T11:20:37.518Z,13.17
2019-01-13T11:21:47.877Z,13.09
2019-01-13T11:22:58.089Z,13.11
2019-01-13T11:24:10.135Z,13.16
2019-01-13T11:25:20.249Z,13.17
2019-01-13T11:26:30.413Z,13.14
2019-01-13T11:27:40.393Z,13.16
2019-01-13T11:28:50.623Z,13.07
2019-01-13T11:30:03.613Z,12.98
2019-01-13T11:31:13.748Z,12.77
2019-01-13T11:32:23.913Z,12.63
2019-01-13T11:33:34.088Z,12.44
2019-01-13T11:34:43.890Z,12.33
2019-01-13T11:35:53.453Z,12.2
2019-01-13T11:37:05.921Z,12.41
2019-01-13T11:38:16.057Z,12.53
2019-01-13T11:39:26.250Z,12.59
2019-01-13T11:40:36.526Z,12.48
2019-01-13T11:41:46.587Z,12.22
2019-01-13T11:42:56.735Z,12.08
2019-01-13T11:44:06.856Z,12.05
2019-01-13T11:45:16.785Z,12.1
2019-01-13T11:46:26.918Z,12.15
2019-01-13T11:47:37.176Z,12.18
2019-01-13T11:48:47.073Z,12.25
2019-01-13T11:49:57.068Z,12.34
2019-01-13T11:51:08.959Z,12.37
2019-01-13T11:52:19.177Z,12.31
2019-01-13T11:53:29.091Z,12.29
2019-01-13T11:54:39.671Z,12.43
2019-01-13T11:55:50.048Z,12.44
2019-01-13T11:56:59.874Z,12.59
2019-01-13T11:58:11.041Z,12.94
2019-01-13T11:59:23.890Z,13.07
2019-01-13T12:00:34.949Z,13.35
2019-01-13T12:01:46.146Z,13.32
2019-01-13T12:02:57.594Z,13.51
2019-01-13T12:04:22.585Z,13.55
2019-01-13T12:05:33.946Z,13.44
2019-01-13T12:06:44.679Z,13.53
2019-01-13T12:07:55.555Z,13.65
2019-01-13T12:09:08.455Z,13.36
2019-01-13T12:10:19.218Z,13.03
2019-01-13T12:11:30.216Z,12.77
2019-01-13T12:12:40.615Z,12.59
2019-01-13T12:13:53.999Z,12.37
2019-01-13T12:15:05.094Z,12.31
2019-01-13T12:16:15.553Z,12.25
2019-01-13T12:17:26.034Z,12.11
2019-01-13T12:18:42.906Z,12.11
2019-01-13T12:19:54.024Z,12.03
2019-01-13T12:21:04.574Z,11.95
2019-01-13T12:22:14.932Z,11.94
2019-01-13T12:23:25.364Z,11.89
2019-01-13T12:24:35.608Z,12.01
2019-01-13T12:25:52.485Z,11.89
2019-01-13T12:27:04.391Z,11.95
2019-01-13T12:28:15.448Z,11.94
2019-01-13T12:29:26.293Z,11.97
2019-01-13T12:30:37.129Z,11.89
2019-01-13T12:31:47.957Z,11.91
2019-01-13T12:32:58.458Z,11.89
2019-01-13T12:34:09.002Z,11.79
2019-01-13T12:35:19.144Z,11.66
2019-01-13T12:36:30.626Z,11.59
2019-01-13T12:37:41.496Z,11.43
2019-01-13T12:38:52.442Z,11.38
2019-01-13T12:40:03.068Z,11.21
2019-01-13T12:41:14.276Z,11.28
2019-01-13T12:42:25.196Z,11.15
2019-01-13T12:43:36.149Z,11.12
2019-01-13T12:44:47.408Z,11.05
2019-01-13T12:45:58.702Z,10.95
2019-01-13T12:47:08.877Z,10.9
2019-01-13T12:48:19.622Z,10.95
2019-01-13T12:49:29.425Z,10.79
2019-01-13T12:50:39.270Z,10.77
2019-01-13T12:51:49.423Z,10.83
2019-01-13T12:52:59.526Z,10.79
2019-01-13T12:54:09.693Z,10.67
2019-01-13T12:55:19.545Z,10.69
2019-01-13T12:56:29.814Z,10.67
2019-01-13T12:57:39.685Z,10.69
2019-01-13T12:58:50.369Z,10.65
2019-01-13T13:00:00.833Z,10.58
2019-01-13T13:01:11.268Z,10.61
2019-01-13T13:02:21.426Z,10.67
2019-01-13T13:03:36.423Z,10.69
2019-01-13T13:04:46.626Z,10.58
2019-01-13T13:05:56.498Z,10.69
2019-01-13T13:07:06.633Z,10.72
2019-01-13T13:08:16.819Z,10.8
2019-01-13T13:09:27.262Z,10.77
2019-01-13T13:10:37.624Z,10.84
2019-01-13T13:11:48.986Z,10.83
2019-01-13T13:12:59.736Z,10.9
2019-01-13T13:14:10.237Z,10.91
2019-01-13T13:15:21.188Z,10.9
2019-01-13T13:16:32.047Z,10.83
2019-01-13T13:17:42.633Z,10.66
2019-01-13T13:18:53.591Z,10.63
2019-01-13T13:20:05.196Z,10.65
2019-01-13T13:21:16.077Z,10.63
2019-01-13T13:22:26.263Z,10.59
2019-01-13T13:23:35.870Z,10.59
2019-01-13T13:24:45.947Z,10.58
2019-01-13T13:25:56.021Z,10.61
2019-01-13T13:27:06.186Z,10.67
2019-01-13T13:28:15.998Z,10.51
2019-01-13T13:29:26.938Z,10.51
2019-01-13T13:30:37.197Z,10.44
2019-01-13T13:31:47.260Z,10.36
2019-01-13T13:32:57.333Z,10.39
2019-01-13T13:34:07.648Z,10.33
2019-01-13T13:35:17.795Z,10.26
2019-01-13T13:36:27.947Z,10.25
2019-01-13T13:37:38.027Z,10.26
2019-01-13T13:38:47.869Z,10.14
2019-01-13T13:39:57.978Z,10.21
2019-01-13T13:41:08.106Z,10.13
2019-01-13T13:42:18.195Z,10.29
2019-01-13T13:43:28.336Z,10.39
2019-01-13T13:44:38.148Z,10.46
2019-01-13T13:45:48.335Z,10.51
2019-01-13T13:46:58.485Z,10.59
2019-01-13T13:48:08.594Z,10.61
2019-01-13T13:49:18.712Z,10.67
2019-01-13T13:50:28.808Z,10.72
2019-01-13T13:51:38.675Z,10.72
2019-01-13T13:52:48.771Z,10.75
2019-01-13T13:53:58.853Z,10.69
2019-01-13T13:55:08.923Z,10.7
2019-01-13T13:56:19.000Z,10.7
2019-01-13T13:57:29.095Z,10.69
2019-01-13T13:58:39.286Z,10.72
2019-01-13T13:59:48.855Z,10.7
2019-01-13T14:00:58.926Z,10.67
2019-01-13T14:02:09.273Z,10.66
2019-01-13T14:03:19.363Z,10.65
2019-01-13T14:04:29.505Z,10.66
2019-01-13T14:05:39.686Z,10.61
2019-01-13T14:06:49.750Z,10.65
2019-01-13T14:07:59.818Z,10.54
2019-01-13T14:09:10.610Z,10.51
2019-01-13T14:10:20.689Z,10.49
2019-01-13T14:11:30.999Z,10.41
2019-01-13T14:12:41.068Z,10.42
2019-01-13T14:13:51.149Z,10.39
2019-01-13T14:15:01.407Z,10.35
2019-01-13T14:16:11.286Z,10.36
2019-01-13T14:17:21.368Z,10.41
2019-01-13T14:18:31.183Z,10.35
2019-01-13T14:19:41.268Z,10.25
2019-01-13T14:20:51.358Z,10.25
2019-01-13T14:22:01.454Z,10.25
2019-01-13T14:23:11.320Z,10.28
2019-01-13T14:24:21.421Z,10.25
2019-01-13T14:25:32.114Z,10.14
2019-01-13T14:26:42.218Z,10.15
2019-01-13T14:27:52.326Z,10.14
2019-01-13T14:29:03.219Z,10.08
2019-01-13T14:30:14.666Z,9.99
2019-01-13T14:31:24.956Z,10.05
2019-01-13T14:32:35.074Z,10.1
2019-01-13T14:33:45.223Z,10.08
2019-01-13T14:35:02.192Z,10.03
2019-01-13T14:36:12.289Z,10.08
2019-01-13T14:37:22.391Z,9.93
2019-01-13T14:38:32.510Z,10
2019-01-13T14:39:48.534Z,9.93
2019-01-13T14:40:58.790Z,9.89
2019-01-13T14:42:08.618Z,9.88
2019-01-13T14:43:19.038Z,9.84
2019-01-13T14:44:29.202Z,9.85
2019-01-13T14:45:39.043Z,9.82
2019-01-13T14:46:49.182Z,9.82
2019-01-13T14:47:59.054Z,9.88
2019-01-13T14:49:10.056Z,9.8
2019-01-13T14:50:20.172Z,9.9
2019-01-13T14:51:30.410Z,9.88
2019-01-13T14:52:41.219Z,9.82
2019-01-13T14:53:52.322Z,9.9
2019-01-13T14:55:01.724Z,9.84
2019-01-13T14:56:11.836Z,9.81
2019-01-13T14:57:22.033Z,9.84
2019-01-13T14:58:32.330Z,9.84
2019-01-13T14:59:42.548Z,9.84
2019-01-13T15:00:52.702Z,9.67
2019-01-13T15:02:03.165Z,9.71
2019-01-13T15:03:13.382Z,9.7
2019-01-13T15:04:23.600Z,9.63
2019-01-13T15:05:34.611Z,9.66
2019-01-13T15:06:44.965Z,9.62
2019-01-13T15:07:54.982Z,9.67
2019-01-13T15:09:06.418Z,9.64
2019-01-13T15:10:16.467Z,9.71
2019-01-13T15:11:26.561Z,9.6
2019-01-13T15:12:38.058Z,9.64
2019-01-13T15:13:48.004Z,9.63
2019-01-13T15:14:58.132Z,9.64
2019-01-13T15:16:10.344Z,9.67
2019-01-13T15:17:20.465Z,9.64
2019-01-13T15:18:30.550Z,9.66
2019-01-13T15:19:40.918Z,9.62
2019-01-13T15:20:51.007Z,9.66
2019-01-13T15:22:01.116Z,9.7
2019-01-13T15:23:10.964Z,9.64
2019-01-13T15:24:21.077Z,9.67
2019-01-13T15:25:31.183Z,9.67
2019-01-13T15:26:41.009Z,9.63
2019-01-13T15:27:51.070Z,9.62
2019-01-13T15:29:01.477Z,9.63
2019-01-13T15:30:11.557Z,9.67
2019-01-13T15:31:21.795Z,9.63
2019-01-13T15:32:31.995Z,9.64
2019-01-13T15:33:42.060Z,9.66
2019-01-13T15:34:52.156Z,9.66
2019-01-13T15:36:02.350Z,9.7
2019-01-13T15:37:12.415Z,9.66
2019-01-13T15:38:22.533Z,9.63
2019-01-13T15:39:33.201Z,9.63
2019-01-13T15:40:43.330Z,9.6
2019-01-13T15:41:53.147Z,9.7
2019-01-13T15:43:03.205Z,9.7
2019-01-13T15:44:13.518Z,9.7
2019-01-13T15:45:23.585Z,9.7
2019-01-13T15:46:33.636Z,9.6
2019-01-13T15:47:43.737Z,9.66
2019-01-13T15:48:53.796Z,9.63
2019-01-13T15:50:03.688Z,9.63
2019-01-13T15:51:13.772Z,9.64
2019-01-13T15:52:23.864Z,9.66
2019-01-13T15:53:33.707Z,9.7
2019-01-13T15:54:43.773Z,9.66
2019-01-13T15:55:53.338Z,9.78
2019-01-13T15:57:03.400Z,9.8
2019-01-13T15:58:12.705Z,9.71
2019-01-13T15:59:22.798Z,9.75
2019-01-13T16:00:32.931Z,9.85
2019-01-13T16:01:42.714Z,9.78
2019-01-13T16:02:52.793Z,9.9
2019-01-13T16:04:03.418Z,9.77
2019-01-13T16:05:19.765Z,9.84
2019-01-13T16:06:29.614Z,9.77
2019-01-13T16:07:39.518Z,9.74
2019-01-13T16:08:49.355Z,9.84
2019-01-13T16:09:59.529Z,9.78
2019-01-13T16:11:10.049Z,9.72